Time;durP1;ratioP1;P1;durP2;ratioP2;P2;SDS_P1;SDS_P2;PMS_P1;PMS_P2;Temp;Humidity;BMP_temperature;BMP_pressure;BME280_temperature;BME280_humidity;BME280_pressure;Samples;Min_cycle;Max_cycle;Signal;HPM_P1;HPM_P2
2022/04/05 00:00:17;;;;;;;12.02;1.63;;;10.30;99.10;;;;;;5031385;28;20029;-67
2022/04/05 00:02:43;;;;;;;8.77;1.25;;;10.20;99.10;;;;;;5031648;28;20037;-66
2022/04/05 00:05:08;;;;;;;9.48;1.98;;;10.20;99.10;;;;;;5017866;28;20393;-67
2022/04/05 00:07:34;;;;;;;22.70;3.22;;;10.20;99.10;;;;;;5022712;28;20017;-66
2022/04/05 00:10:00;;;;;;;10.30;2.03;;;10.30;99.10;;;;;;5024493;28;20449;-66
2022/04/05 00:12:26;;;;;;;10.27;2.10;;;10.30;99.00;;;;;;5020771;28;20068;-67
2022/04/05 00:14:52;;;;;;;14.55;2.42;;;10.30;99.00;;;;;;5029973;28;20065;-67
2022/04/05 00:17:18;;;;;;;9.52;1.65;;;10.20;98.90;;;;;;5031401;28;20053;-67
2022/04/05 00:19:44;;;;;;;4.97;1.40;;;10.20;98.90;;;;;;5026859;28;20463;-68
2022/04/05 00:22:09;;;;;;;20.15;2.28;;;10.20;98.90;;;;;;5017616;28;20033;-66
2022/04/05 00:24:35;;;;;;;12.43;1.85;;;10.30;98.90;;;;;;5019914;28;20042;-67
2022/04/05 00:27:01;;;;;;;17.52;2.92;;;10.20;98.90;;;;;;5025113;28;20072;-66
2022/04/05 00:29:26;;;;;;;21.17;2.92;;;10.30;98.90;;;;;;5022420;28;20030;-66
2022/04/05 00:31:52;;;;;;;6.20;2.13;;;10.30;98.90;;;;;;5026378;28;20033;-66
2022/04/05 00:34:18;;;;;;;3.88;1.00;;;10.30;98.80;;;;;;5022725;28;20087;-66
2022/04/05 00:36:45;;;;;;;20.60;2.60;;;10.30;98.80;;;;;;5027474;28;20021;-66
2022/04/05 00:39:11;;;;;;;17.83;3.05;;;10.30;98.80;;;;;;5030834;28;20033;-66
2022/04/05 00:41:37;;;;;;;21.42;2.95;;;10.30;99.00;;;;;;5026273;28;20034;-67
2022/04/05 00:44:03;;;;;;;18.00;2.40;;;10.30;98.60;;;;;;5030542;28;20100;-66
2022/04/05 00:46:29;;;;;;;16.05;2.75;;;10.30;98.30;;;;;;5027522;28;20050;-66
2022/04/05 00:48:57;;;;;;;7.03;1.80;;;10.40;98.50;;;;;;5010941;28;20417;-66
2022/04/05 00:51:24;;;;;;;17.08;2.92;;;10.40;97.90;;;;;;5027337;28;20030;-67
2022/04/05 00:53:57;;;;;;;14.70;1.77;;;10.40;97.70;;;;;;5025996;28;20099;-66
2022/04/05 00:56:24;;;;;;;11.27;2.63;;;10.40;97.50;;;;;;5021453;28;20042;-66
2022/04/05 00:58:53;;;;;;;18.60;2.25;;;10.40;97.40;;;;;;5034822;28;20049;-66
2022/04/05 01:01:24;;;;;;;13.98;2.55;;;10.40;97.00;;;;;;5033188;28;20065;-66
2022/04/05 01:03:51;;;;;;;19.00;3.28;;;10.40;96.70;;;;;;5033892;28;20041;-66
2022/04/05 01:06:25;;;;;;;18.90;2.45;;;10.40;96.90;;;;;;5023542;28;20380;-66
2022/04/05 01:08:51;;;;;;;8.73;1.73;;;10.30;96.80;;;;;;5024756;28;20033;-66
2022/04/05 01:11:17;;;;;;;14.43;2.28;;;10.30;96.70;;;;;;5034590;28;20033;-66
2022/04/05 01:13:43;;;;;;;11.32;2.28;;;10.30;96.70;;;;;;5021587;28;20029;-66
2022/04/05 01:16:11;;;;;;;20.80;2.28;;;10.30;96.50;;;;;;5034061;28;20033;-66
2022/04/05 01:18:37;;;;;;;9.68;1.77;;;10.30;96.30;;;;;;5030596;28;20073;-66
2022/04/05 01:21:03;;;;;;;19.15;2.25;;;10.20;96.30;;;;;;5032268;28;20037;-66
2022/04/05 01:23:29;;;;;;;23.92;4.10;;;10.30;96.00;;;;;;5033790;28;20377;-66
2022/04/05 01:25:56;;;;;;;19.55;2.20;;;10.20;96.10;;;;;;5034019;28;20488;-66
2022/04/05 01:28:22;;;;;;;17.52;2.47;;;10.30;96.40;;;;;;5031226;28;20537;-66
2022/04/05 01:30:48;;;;;;;18.60;2.88;;;10.20;96.50;;;;;;5023672;28;20416;-66
2022/04/05 01:33:14;;;;;;;11.07;1.85;;;10.20;96.50;;;;;;5030531;28;20026;-66
2022/04/05 01:35:40;;;;;;;15.25;2.75;;;10.20;96.40;;;;;;5024934;28;20037;-66
2022/04/05 01:38:09;;;;;;;11.25;1.60;;;10.20;96.40;;;;;;5029721;28;20037;-66
2022/04/05 01:40:36;;;;;;;21.73;2.25;;;10.20;96.30;;;;;;5031771;28;20044;-66
2022/04/05 01:43:02;;;;;;;17.33;2.00;;;10.20;96.40;;;;;;5026906;28;20478;-66
2022/04/05 01:45:28;;;;;;;13.70;1.70;;;10.20;96.30;;;;;;5029849;28;20063;-66
2022/04/05 01:47:54;;;;;;;19.00;2.33;;;10.20;96.50;;;;;;5019515;28;20472;-66
2022/04/05 01:50:19;;;;;;;12.10;2.38;;;10.20;96.50;;;;;;5033428;28;20481;-66
2022/04/05 01:52:45;;;;;;;21.85;2.10;;;10.20;96.60;;;;;;5033401;28;20038;-66
2022/04/05 01:55:14;;;;;;;12.68;2.13;;;10.20;96.60;;;;;;5022726;28;20176;-66
2022/04/05 01:57:39;;;;;;;16.50;2.03;;;10.20;96.50;;;;;;5021018;28;20567;-66
2022/04/05 02:00:08;;;;;;;12.30;2.65;;;10.20;96.50;;;;;;5034259;28;20072;-67
2022/04/05 02:02:37;;;;;;;16.88;2.38;;;10.20;96.40;;;;;;5033379;28;20029;-67
2022/04/05 02:05:03;;;;;;;10.40;2.20;;;10.20;96.50;;;;;;5033115;28;20037;-67
2022/04/05 02:07:29;;;;;;;17.40;2.90;;;10.20;96.40;;;;;;5033094;28;20481;-66
2022/04/05 02:09:58;;;;;;;15.25;2.20;;;10.20;96.40;;;;;;5027034;28;20044;-67
2022/04/05 02:12:24;;;;;;;16.88;2.78;;;10.20;96.50;;;;;;5024967;28;20077;-66
2022/04/05 02:15:10;;;;;;;12.18;1.88;;;10.20;96.50;;;;;;5020280;28;20519;-66
2022/04/05 02:17:44;;;;;;;15.82;1.92;;;10.20;96.50;;;;;;5019343;28;20022;-66
2022/04/05 02:20:13;;;;;;;10.85;1.70;;;10.20;96.60;;;;;;5022697;28;20026;-66
2022/04/05 02:22:40;;;;;;;13.15;2.33;;;10.20;96.60;;;;;;5032373;28;20493;-66
2022/04/05 02:25:14;;;;;;;9.18;1.45;;;10.10;96.60;;;;;;5048277;28;20036;-66
2022/04/05 02:27:41;;;;;;;4.95;1.77;;;10.20;96.60;;;;;;5026749;28;20168;-67
2022/04/05 02:30:10;;;;;;;6.65;1.13;;;10.10;96.60;;;;;;5024993;28;20036;-66
2022/04/05 02:32:36;;;;;;;15.52;1.90;;;10.10;96.60;;;;;;5028422;28;20499;-66
2022/04/05 02:35:03;;;;;;;13.02;1.83;;;10.10;96.60;;;;;;5031557;28;20037;-66
2022/04/05 02:37:29;;;;;;;11.85;1.95;;;10.20;96.60;;;;;;5025450;28;20044;-66
2022/04/05 02:39:55;;;;;;;17.38;2.15;;;10.10;96.60;;;;;;5025596;28;20033;-67
2022/04/05 02:42:21;;;;;;;17.00;2.08;;;10.10;96.50;;;;;;5031425;28;20095;-66
2022/04/05 02:44:50;;;;;;;11.70;1.83;;;10.10;96.50;;;;;;5030014;28;20132;-66
2022/04/05 02:47:16;;;;;;;9.57;1.27;;;10.10;96.50;;;;;;5025415;28;20112;-67
2022/04/05 02:49:46;;;;;;;7.65;1.55;;;10.20;96.50;;;;;;5032048;28;20036;-66
2022/04/05 02:52:19;;;;;;;6.50;1.38;;;10.10;96.50;;;;;;5026182;28;20432;-66
2022/04/05 02:54:51;;;;;;;13.38;1.60;;;10.10;96.50;;;;;;5030809;28;20498;-66
2022/04/05 02:57:18;;;;;;;12.27;1.85;;;10.10;96.50;;;;;;5030525;28;20132;-67
2022/04/05 02:59:46;;;;;;;16.00;2.60;;;10.10;96.50;;;;;;5031294;28;20092;-66
2022/04/05 03:02:12;;;;;;;6.03;1.25;;;10.10;96.40;;;;;;5017110;28;20036;-67
2022/04/05 03:04:43;;;;;;;12.70;2.08;;;10.10;96.40;;;;;;5030886;28;20045;-66
2022/04/05 03:07:10;;;;;;;12.88;1.42;;;10.10;96.40;;;;;;5031142;28;20552;-66
2022/04/05 03:09:36;;;;;;;14.05;1.67;;;10.10;96.40;;;;;;5030448;28;20496;-66
2022/04/05 03:15:24;;;;;;;21.90;2.35;;;10.10;96.40;;;;;;5018492;28;20776;-66
2022/04/05 03:17:55;;;;;;;13.25;2.30;;;10.10;96.40;;;;;;5027074;28;20025;-66
2022/04/05 03:20:22;;;;;;;14.38;2.28;;;10.10;96.30;;;;;;5027315;28;20025;-66
2022/04/05 03:22:51;;;;;;;15.75;1.80;;;10.10;96.40;;;;;;5016164;28;20036;-66
2022/04/05 03:25:17;;;;;;;8.20;1.55;;;10.10;96.40;;;;;;5021348;28;20128;-66
2022/04/05 03:27:45;;;;;;;8.77;1.35;;;10.10;96.40;;;;;;5028763;28;20500;-66
2022/04/05 03:30:15;;;;;;;10.30;1.25;;;10.10;96.40;;;;;;5018255;28;20041;-67
2022/04/05 03:32:42;;;;;;;14.70;2.50;;;10.00;96.40;;;;;;5029142;28;20480;-67
2022/04/05 03:35:09;;;;;;;13.10;2.45;;;10.10;96.40;;;;;;5029410;28;20095;-66
2022/04/05 03:37:36;;;;;;;18.65;1.83;;;10.00;96.40;;;;;;5029977;28;20376;-66
2022/04/05 03:40:05;;;;;;;12.02;2.28;;;10.00;96.40;;;;;;5028989;28;20029;-66
2022/04/05 03:42:31;;;;;;;13.20;1.90;;;10.00;96.40;;;;;;5015609;28;20116;-66
2022/04/05 03:44:57;;;;;;;18.77;2.25;;;10.00;96.40;;;;;;5028076;28;20048;-66
2022/04/05 03:47:24;;;;;;;18.25;2.22;;;10.00;96.40;;;;;;5030775;28;20033;-69
2022/04/05 03:49:50;;;;;;;15.02;2.13;;;10.00;96.40;;;;;;5028494;28;20064;-66
2022/04/05 03:52:17;;;;;;;21.45;5.13;;;10.00;96.40;;;;;;5028984;28;20096;-68
2022/04/05 03:54:43;;;;;;;11.18;2.47;;;10.00;96.40;;;;;;5028947;28;20029;-66
2022/04/05 03:57:13;;;;;;;22.15;3.05;;;10.00;96.30;;;;;;5019060;28;20053;-66
2022/04/05 03:59:40;;;;;;;13.02;3.88;;;10.00;96.30;;;;;;5026312;28;20033;-66
2022/04/05 04:02:05;;;;;;;10.85;1.98;;;10.10;96.30;;;;;;5011557;28;20037;-67
2022/04/05 04:04:32;;;;;;;10.07;2.53;;;10.00;96.20;;;;;;5025556;28;20052;-65
2022/04/05 04:06:59;;;;;;;13.82;1.85;;;10.10;96.30;;;;;;5023255;28;20033;-66
2022/04/05 04:09:26;;;;;;;15.00;2.08;;;10.00;96.20;;;;;;5029638;28;20021;-66
2022/04/05 04:11:53;;;;;;;15.10;1.73;;;10.00;96.20;;;;;;5027893;28;20022;-66
2022/04/05 04:14:19;;;;;;;12.55;2.13;;;10.10;96.30;;;;;;5028717;28;20146;-65
2022/04/05 04:16:48;;;;;;;13.00;2.13;;;10.00;96.20;;;;;;5028466;28;20026;-66
2022/04/05 04:19:13;;;;;;;18.35;2.35;;;10.00;96.20;;;;;;5028039;28;20028;-66
2022/04/05 04:21:39;;;;;;;16.00;2.35;;;10.00;96.20;;;;;;5028662;28;20385;-66
2022/04/05 04:24:06;;;;;;;15.32;2.10;;;10.00;96.20;;;;;;5028666;28;20021;-66
2022/04/05 04:26:32;;;;;;;19.58;2.15;;;10.00;96.30;;;;;;5012801;28;20604;-66
2022/04/05 04:29:02;;;;;;;10.07;2.05;;;10.00;96.30;;;;;;5014710;28;20163;-66
2022/04/05 04:31:28;;;;;;;14.07;1.50;;;10.00;96.30;;;;;;5016528;28;20021;-66
2022/04/05 04:33:53;;;;;;;12.00;1.33;;;10.00;96.30;;;;;;5024721;28;20044;-66
2022/04/05 04:36:19;;;;;;;12.80;1.52;;;10.00;96.30;;;;;;5023456;28;20060;-66
2022/04/05 04:38:45;;;;;;;12.43;2.00;;;9.90;96.20;;;;;;5030447;28;20064;-66
2022/04/05 04:41:12;;;;;;;10.02;1.58;;;9.90;96.30;;;;;;5030687;28;20033;-68
2022/04/05 04:43:38;;;;;;;16.05;1.85;;;9.90;96.30;;;;;;5029766;28;20399;-68
2022/04/05 04:46:04;;;;;;;9.98;1.67;;;9.90;96.30;;;;;;5030088;28;20052;-68
2022/04/05 04:48:30;;;;;;;4.68;1.33;;;9.90;96.30;;;;;;5030244;28;20546;-67
2022/04/05 04:50:56;;;;;;;11.50;1.85;;;9.90;96.30;;;;;;5031027;28;20037;-66
2022/04/05 04:53:22;;;;;;;10.77;2.17;;;9.90;96.40;;;;;;5025397;28;20133;-67
2022/04/05 04:55:48;;;;;;;5.07;1.13;;;9.90;96.30;;;;;;5021079;28;20475;-66
2022/04/05 04:58:14;;;;;;;15.30;1.52;;;9.90;96.30;;;;;;5028003;28;20038;-67
2022/04/05 05:00:40;;;;;;;8.95;1.60;;;9.90;96.30;;;;;;5027806;28;20369;-66
2022/04/05 05:03:05;;;;;;;14.00;1.77;;;9.90;96.30;;;;;;5028997;28;20477;-66
2022/04/05 05:05:31;;;;;;;3.03;0.88;;;9.90;96.30;;;;;;5029673;28;20084;-68
2022/04/05 05:07:56;;;;;;;14.93;2.92;;;9.90;96.30;;;;;;5028518;28;20097;-67
2022/04/05 05:10:23;;;;;;;18.45;1.65;;;9.80;96.60;;;;;;5026780;28;20037;-67
2022/04/05 05:12:49;;;;;;;7.40;1.20;;;9.80;96.30;;;;;;5029475;28;20030;-68
2022/04/05 05:15:18;;;;;;;11.98;3.03;;;9.90;96.30;;;;;;5029596;28;20038;-67
2022/04/05 05:17:45;;;;;;;9.38;1.45;;;9.90;96.30;;;;;;5029506;28;20026;-66
2022/04/05 05:20:12;;;;;;;24.48;2.67;;;9.90;96.30;;;;;;5030476;28;20025;-66
2022/04/05 05:22:39;;;;;;;11.25;1.65;;;9.80;96.30;;;;;;5026770;28;20617;-65
2022/04/05 05:25:05;;;;;;;7.75;2.60;;;9.90;96.30;;;;;;5029135;28;20037;-65
2022/04/05 05:27:31;;;;;;;9.60;1.35;;;9.90;96.20;;;;;;5029466;28;20030;-65
2022/04/05 05:29:57;;;;;;;12.23;1.85;;;9.90;96.20;;;;;;5028893;28;20447;-65
2022/04/05 05:32:22;;;;;;;10.70;1.65;;;9.80;96.20;;;;;;5022127;28;20087;-66
2022/04/05 05:34:48;;;;;;;16.10;2.03;;;9.80;96.20;;;;;;5015167;28;20033;-66
2022/04/05 05:37:14;;;;;;;11.98;1.40;;;9.80;96.20;;;;;;5030541;28;20049;-70
2022/04/05 05:39:40;;;;;;;6.70;1.30;;;9.80;96.20;;;;;;5032690;28;20468;-66
2022/04/05 05:42:07;;;;;;;7.07;1.15;;;9.80;96.20;;;;;;5032849;28;20032;-65
2022/04/05 05:44:33;;;;;;;10.25;1.80;;;9.80;96.20;;;;;;5031680;28;20045;-67
2022/04/05 05:47:00;;;;;;;9.45;1.33;;;9.80;96.20;;;;;;5032323;28;20083;-69
2022/04/05 05:49:26;;;;;;;4.15;1.33;;;9.80;96.30;;;;;;5033198;28;20057;-67
2022/04/05 05:51:51;;;;;;;4.55;1.38;;;9.80;96.30;;;;;;5032475;28;20030;-67
2022/04/05 05:54:20;;;;;;;7.22;0.98;;;9.80;96.30;;;;;;5028955;28;20030;-64
2022/04/05 05:56:46;;;;;;;4.63;0.93;;;9.80;96.40;;;;;;5023516;28;20378;-65
2022/04/05 05:59:15;;;;;;;18.88;1.42;;;9.80;96.40;;;;;;5019359;28;20041;-65
2022/04/05 06:01:41;;;;;;;3.22;0.93;;;9.70;96.40;;;;;;5020947;28;20026;-65
2022/04/05 06:04:07;;;;;;;5.82;1.20;;;9.70;96.40;;;;;;5017792;28;20473;-65
2022/04/05 06:06:32;;;;;;;5.57;1.48;;;9.70;96.50;;;;;;5033278;28;20034;-65
2022/04/05 06:08:59;;;;;;;7.45;1.15;;;9.70;96.50;;;;;;5014106;28;20495;-65
2022/04/05 06:11:25;;;;;;;1.42;0.90;;;9.60;96.60;;;;;;5012814;28;20034;-65
2022/04/05 06:13:51;;;;;;;4.60;1.00;;;9.60;96.60;;;;;;5013429;28;20057;-65
2022/04/05 06:16:18;;;;;;;5.78;0.65;;;9.60;96.60;;;;;;5013429;28;20045;-65
2022/04/05 06:18:46;;;;;;;7.32;1.50;;;9.60;96.70;;;;;;5032282;28;20092;-65
2022/04/05 06:21:13;;;;;;;4.22;1.65;;;9.60;96.70;;;;;;5020254;28;20038;-65
2022/04/05 06:23:39;;;;;;;2.47;0.77;;;9.60;96.80;;;;;;5033356;28;20026;-65
2022/04/05 06:26:05;;;;;;;1.83;0.68;;;9.60;96.80;;;;;;5018902;28;20092;-65
2022/04/05 06:28:31;;;;;;;3.95;0.77;;;9.60;96.80;;;;;;5033136;28;20112;-65
2022/04/05 06:30:57;;;;;;;10.50;1.92;;;9.60;96.80;;;;;;5019595;28;20112;-65
2022/04/05 06:33:22;;;;;;;12.98;1.92;;;9.60;96.90;;;;;;5032149;28;20104;-65
2022/04/05 06:35:52;;;;;;;6.95;0.70;;;9.60;96.90;;;;;;5032759;28;20087;-65
2022/04/05 06:38:18;;;;;;;1.63;0.65;;;9.60;97.00;;;;;;5033148;28;20022;-65
2022/04/05 06:40:44;;;;;;;5.93;0.70;;;9.60;97.00;;;;;;5031993;28;20037;-65
2022/04/05 06:43:14;;;;;;;16.20;1.90;;;9.60;97.00;;;;;;5033161;28;20095;-65
2022/04/05 06:45:41;;;;;;;11.95;1.10;;;9.60;97.10;;;;;;5031035;28;20052;-65
2022/04/05 06:48:09;;;;;;;6.38;1.45;;;9.60;97.10;;;;;;5031632;28;20026;-65
2022/04/05 06:50:36;;;;;;;13.18;1.58;;;9.60;97.10;;;;;;5032865;28;20427;-65
2022/04/05 06:53:03;;;;;;;7.25;1.23;;;9.60;97.10;;;;;;5025273;28;20458;-65
2022/04/05 06:55:29;;;;;;;4.03;0.93;;;9.60;97.10;;;;;;5012946;28;20038;-65
2022/04/05 06:57:55;;;;;;;12.57;1.65;;;9.60;97.10;;;;;;5019914;28;20060;-65
2022/04/05 07:00:23;;;;;;;12.30;1.90;;;9.70;97.20;;;;;;5031200;28;20044;-65
2022/04/05 07:02:51;;;;;;;8.07;1.42;;;9.70;97.20;;;;;;5032241;28;20071;-65
2022/04/05 07:05:17;;;;;;;16.48;2.38;;;9.70;97.20;;;;;;5031425;28;20081;-65
2022/04/05 07:07:43;;;;;;;26.80;2.55;;;9.70;97.30;;;;;;5032131;28;20076;-65
2022/04/05 07:10:11;;;;;;;14.18;2.10;;;9.80;97.30;;;;;;5016457;28;20528;-65
2022/04/05 07:12:37;;;;;;;11.00;1.85;;;9.80;97.30;;;;;;5021284;28;20033;-66
2022/04/05 07:15:04;;;;;;;11.85;1.77;;;9.80;97.20;;;;;;5028840;28;20033;-65
2022/04/05 07:17:30;;;;;;;9.65;1.50;;;9.80;97.20;;;;;;5021863;28;20421;-65
2022/04/05 07:19:56;;;;;;;14.25;1.90;;;9.90;97.20;;;;;;5031800;28;20037;-65
2022/04/05 07:22:21;;;;;;;7.47;1.58;;;9.90;97.10;;;;;;5031482;28;20029;-63
2022/04/05 07:24:47;;;;;;;18.23;2.38;;;10.00;97.10;;;;;;5018752;28;20500;-63
2022/04/05 07:27:14;;;;;;;11.25;1.90;;;10.00;97.10;;;;;;5022527;28;20503;-64
2022/04/05 07:29:40;;;;;;;14.52;2.50;;;10.00;97.10;;;;;;5017732;28;20395;-64
2022/04/05 07:32:06;;;;;;;8.18;1.65;;;10.10;97.10;;;;;;5021147;28;20040;-63
2022/04/05 07:34:32;;;;;;;4.93;1.42;;;10.00;97.00;;;;;;5012217;28;20034;-64
2022/04/05 07:37:00;;;;;;;9.07;1.20;;;10.10;97.00;;;;;;5022277;28;20045;-65
2022/04/05 07:39:26;;;;;;;1.98;1.02;;;10.10;97.00;;;;;;5013840;28;20460;-65
2022/04/05 07:41:53;;;;;;;15.13;1.52;;;10.10;97.00;;;;;;5011403;28;20039;-66
2022/04/05 07:44:19;;;;;;;8.90;1.30;;;10.10;97.00;;;;;;5016324;28;20040;-66
2022/04/05 07:46:45;;;;;;;6.15;1.98;;;10.10;97.00;;;;;;5030151;28;20038;-65
2022/04/05 07:49:11;;;;;;;6.13;1.25;;;10.10;97.00;;;;;;5017685;28;20680;-65
2022/04/05 07:51:37;;;;;;;15.48;3.00;;;10.10;97.30;;;;;;5023577;28;20032;-65
2022/04/05 07:54:04;;;;;;;3.38;0.95;;;10.10;97.10;;;;;;5013803;28;20033;-65
2022/04/05 07:56:30;;;;;;;0.70;0.70;;;10.10;97.10;;;;;;5030632;28;20037;-65
2022/04/05 07:58:56;;;;;;;11.15;1.45;;;10.20;97.20;;;;;;5028820;28;20103;-65
2022/04/05 08:01:21;;;;;;;19.95;2.17;;;10.10;97.20;;;;;;5011719;28;20037;-65
2022/04/05 08:03:47;;;;;;;2.70;1.02;;;10.10;97.20;;;;;;5013626;28;20057;-65
2022/04/05 08:06:13;;;;;;;8.35;1.67;;;10.10;97.30;;;;;;5031498;28;20481;-65
2022/04/05 08:08:38;;;;;;;1.50;0.80;;;10.10;97.30;;;;;;5031013;28;20029;-65
2022/04/05 08:11:04;;;;;;;9.65;1.85;;;10.20;97.30;;;;;;5020509;28;20041;-65
2022/04/05 08:13:30;;;;;;;16.65;1.65;;;10.20;97.30;;;;;;5024389;28;20061;-65
2022/04/05 08:15:56;;;;;;;5.00;0.57;;;10.20;97.30;;;;;;5011635;28;20632;-65
2022/04/05 08:18:22;;;;;;;4.85;1.70;;;10.20;97.30;;;;;;5014906;28;20354;-65
2022/04/05 08:20:48;;;;;;;8.77;1.25;;;10.20;97.40;;;;;;5031137;28;20424;-65
2022/04/05 08:23:14;;;;;;;7.32;1.88;;;10.20;97.40;;;;;;5026745;28;20022;-65
2022/04/05 08:25:40;;;;;;;5.60;1.30;;;10.20;97.40;;;;;;5013455;28;20068;-65
2022/04/05 08:28:06;;;;;;;14.75;1.20;;;10.20;97.40;;;;;;5010954;28;20058;-65
2022/04/05 08:30:35;;;;;;;9.45;2.08;;;10.20;97.40;;;;;;5023312;28;20526;-65
2022/04/05 08:33:01;;;;;;;1.25;0.85;;;10.30;97.40;;;;;;5024139;28;20034;-65
2022/04/05 08:35:27;;;;;;;5.03;1.20;;;10.30;97.40;;;;;;5011207;28;20137;-65
2022/04/05 08:37:57;;;;;;;10.98;1.42;;;10.30;97.50;;;;;;5016604;28;20033;-66
2022/04/05 08:40:24;;;;;;;4.03;0.63;;;10.30;97.50;;;;;;5029241;28;20069;-65
2022/04/05 08:42:52;;;;;;;2.70;0.68;;;10.20;97.60;;;;;;5011198;28;20030;-65
2022/04/05 08:45:19;;;;;;;1.85;0.75;;;10.20;97.60;;;;;;5024944;28;20165;-65
2022/04/05 08:47:46;;;;;;;7.32;1.30;;;10.20;97.70;;;;;;5014687;28;20496;-65
2022/04/05 08:50:15;;;;;;;4.25;0.93;;;10.30;97.70;;;;;;5011220;28;20033;-66
2022/04/05 08:52:43;;;;;;;5.20;1.20;;;10.30;97.60;;;;;;5023205;28;20127;-65
2022/04/05 08:55:08;;;;;;;3.05;0.73;;;10.30;97.60;;;;;;5011274;28;20049;-65
2022/04/05 08:57:34;;;;;;;5.15;1.73;;;10.40;97.60;;;;;;5027458;28;20041;-65
2022/04/05 09:00:01;;;;;;;9.15;1.70;;;10.30;97.60;;;;;;5030129;28;20044;-66
2022/04/05 09:02:28;;;;;;;0.93;0.28;;;10.40;97.60;;;;;;5029713;28;20032;-65
2022/04/05 09:04:53;;;;;;;8.23;1.00;;;10.40;97.60;;;;;;5018990;28;20044;-65
2022/04/05 09:07:23;;;;;;;1.85;1.00;;;10.50;97.60;;;;;;5028584;28;20017;-66
2022/04/05 09:10:13;;;;;;;3.88;1.08;;;10.50;97.60;;;;;;5030560;28;20095;-65
2022/04/05 09:12:47;;;;;;;6.10;2.33;;;10.50;97.60;;;;;;5025694;28;20112;-66
2022/04/05 09:15:15;;;;;;;3.72;0.63;;;10.50;97.60;;;;;;5032881;28;20369;-66
2022/04/05 09:17:42;;;;;;;11.30;1.58;;;10.60;97.60;;;;;;5033411;28;20416;-66
2022/04/05 09:20:09;;;;;;;6.07;2.08;;;10.60;97.60;;;;;;5033257;28;20483;-66
2022/04/05 09:22:35;;;;;;;12.55;2.03;;;10.60;97.50;;;;;;5032278;28;20160;-66
2022/04/05 09:25:15;;;;;;;11.15;2.40;;;10.60;97.50;;;;;;5033044;28;20135;-66
2022/04/05 09:27:55;;;;;;;0.40;0.40;;;10.70;97.50;;;;;;5033442;28;20057;-66
2022/04/05 09:30:31;;;;;;;1.95;0.98;;;10.70;97.50;;;;;;5014415;28;20124;-66
2022/04/05 09:32:59;;;;;;;5.03;1.40;;;10.70;97.50;;;;;;5027547;28;20030;-68
2022/04/05 09:35:30;;;;;;;4.03;1.33;;;10.80;97.50;;;;;;5013984;28;20032;-66
2022/04/05 09:38:17;;;;;;;5.25;1.90;;;10.80;97.80;;;;;;5017720;28;20029;-66
2022/04/05 09:40:43;;;;;;;5.97;1.80;;;10.80;97.50;;;;;;5033066;28;20026;-69
2022/04/05 09:43:13;;;;;;;5.07;1.15;;;10.80;97.50;;;;;;5020415;28;20025;-66
2022/04/05 09:45:53;;;;;;;2.05;0.98;;;10.90;97.50;;;;;;5032312;28;20512;-66
2022/04/05 09:48:27;;;;;;;9.15;2.13;;;10.90;97.40;;;;;;5032935;28;20030;-66
2022/04/05 09:51:11;;;;;;;7.25;1.00;;;10.90;97.20;;;;;;5032962;28;20026;-66
2022/04/05 09:53:54;;;;;;;3.30;1.30;;;11.00;97.30;;;;;;5032662;28;20065;-66
2022/04/05 09:56:25;;;;;;;4.10;1.10;;;11.00;97.30;;;;;;5032064;28;20092;-66
2022/04/05 09:59:18;;;;;;;6.65;1.60;;;11.00;97.30;;;;;;5032605;28;20035;-66
2022/04/05 10:01:45;;;;;;;9.48;1.67;;;11.00;97.30;;;;;;5028845;28;20030;-66
2022/04/05 10:04:17;;;;;;;4.88;1.42;;;11.00;97.20;;;;;;5031897;28;20492;-66
2022/04/05 10:06:46;;;;;;;17.02;4.20;;;11.00;97.20;;;;;;5032324;28;20080;-70
2022/04/05 10:09:17;;;;;;;8.40;1.65;;;11.00;97.20;;;;;;5032491;28;20065;-66
2022/04/05 10:11:44;;;;;;;3.65;1.50;;;11.10;97.10;;;;;;5032474;28;20037;-68
2022/04/05 10:14:13;;;;;;;5.95;1.17;;;11.10;97.40;;;;;;5032746;28;20040;-68
2022/04/05 10:16:45;;;;;;;9.40;1.40;;;11.10;97.20;;;;;;5015165;28;20096;-67
2022/04/05 10:19:11;;;;;;;10.48;1.58;;;11.20;97.20;;;;;;5025620;28;20037;-71
2022/04/05 10:21:39;;;;;;;6.20;1.33;;;11.10;97.20;;;;;;5032358;28;20049;-68
2022/04/05 10:24:06;;;;;;;2.90;1.20;;;11.20;97.40;;;;;;5031351;28;20068;-67
2022/04/05 10:26:34;;;;;;;5.60;1.40;;;11.20;97.20;;;;;;5032136;28;20034;-68
2022/04/05 10:29:05;;;;;;;12.43;1.70;;;11.30;97.10;;;;;;5020758;28;20129;-67
2022/04/05 10:31:40;;;;;;;6.30;1.42;;;11.30;97.00;;;;;;5032898;28;20030;-68
2022/04/05 10:34:14;;;;;;;7.50;1.92;;;11.30;97.00;;;;;;5017272;28;20048;-68
2022/04/05 10:36:51;;;;;;;8.13;1.45;;;11.40;97.00;;;;;;5030096;28;20039;-72
2022/04/05 10:39:20;;;;;;;7.70;1.70;;;11.40;97.00;;;;;;5023247;28;20117;-69
2022/04/05 10:42:12;;;;;;;8.07;1.38;;;11.50;97.00;;;;;;5031501;28;20041;-69
2022/04/05 10:44:41;;;;;;;3.97;1.13;;;11.40;97.00;;;;;;5028963;28;20087;-69
2022/04/05 10:47:07;;;;;;;6.22;1.20;;;11.40;97.00;;;;;;5031062;28;20493;-69
2022/04/05 10:49:45;;;;;;;3.20;1.00;;;11.50;97.00;;;;;;5031606;28;20025;-69
2022/04/05 10:52:15;;;;;;;3.63;1.13;;;11.50;97.00;;;;;;5031360;28;20029;-69
2022/04/05 10:54:42;;;;;;;6.22;1.13;;;11.50;96.90;;;;;;5031800;28;20396;-69
2022/04/05 10:57:32;;;;;;;1.13;0.77;;;11.50;96.90;;;;;;5031411;28;20448;-69
2022/04/05 11:00:19;;;;;;;7.35;1.90;;;11.50;96.90;;;;;;5030798;28;20072;-68
2022/04/05 11:03:06;;;;;;;1.88;1.10;;;11.60;96.90;;;;;;5027329;28;20045;-67
2022/04/05 11:05:40;;;;;;;6.97;1.95;;;11.50;96.80;;;;;;5014339;28;20042;-67
2022/04/05 11:08:11;;;;;;;3.03;0.98;;;11.60;96.90;;;;;;5022651;28;20709;-67
2022/04/05 11:10:36;;;;;;;1.95;1.00;;;11.60;96.90;;;;;;5012450;28;20113;-67
2022/04/05 11:13:07;;;;;;;4.60;1.10;;;11.60;96.90;;;;;;5011924;28;20125;-65
2022/04/05 11:15:45;;;;;;;6.75;1.17;;;11.60;96.90;;;;;;5012605;28;20030;-63
2022/04/05 11:18:15;;;;;;;2.90;1.25;;;11.60;96.90;;;;;;5025479;28;20117;-66
2022/04/05 11:20:42;;;;;;;6.15;1.00;;;11.70;96.80;;;;;;5023160;28;20065;-67
2022/04/05 11:23:09;;;;;;;3.05;0.80;;;11.70;96.70;;;;;;5026576;28;20557;-66
2022/04/05 11:25:35;;;;;;;3.63;1.33;;;11.70;96.60;;;;;;5019883;28;20033;-66
2022/04/05 11:28:21;;;;;;;2.97;1.40;;;11.70;96.50;;;;;;5023246;28;20037;-66
2022/04/05 11:30:51;;;;;;;4.55;1.02;;;11.70;96.40;;;;;;5017753;28;20037;-66
2022/04/05 11:33:29;;;;;;;4.22;0.77;;;11.80;96.30;;;;;;5024039;28;20053;-66
2022/04/05 11:36:08;;;;;;;3.85;1.25;;;11.80;96.30;;;;;;5026741;28;20075;-66
2022/04/05 11:38:42;;;;;;;4.65;1.10;;;11.80;96.20;;;;;;5026332;28;20041;-67
2022/04/05 11:41:10;;;;;;;6.65;1.25;;;11.90;96.30;;;;;;5031039;28;20040;-66
2022/04/05 11:43:47;;;;;;;0.65;0.65;;;11.80;96.60;;;;;;5029843;28;20037;-65
2022/04/05 11:46:17;;;;;;;1.25;0.82;;;11.90;96.50;;;;;;5031246;28;20041;-65
2022/04/05 11:48:45;;;;;;;5.28;0.98;;;11.90;96.60;;;;;;5029776;28;20031;-65
2022/04/05 11:51:14;;;;;;;2.92;0.82;;;11.90;96.60;;;;;;5030907;28;20044;-65
2022/04/05 11:53:41;;;;;;;6.90;1.65;;;11.90;96.90;;;;;;5030527;28;20091;-65
2022/04/05 11:56:21;;;;;;;2.90;1.38;;;12.00;96.70;;;;;;5029640;28;20362;-65
2022/04/05 11:58:52;;;;;;;4.32;1.38;;;12.00;96.80;;;;;;5030680;28;20046;-65
2022/04/05 12:01:24;;;;;;;1.17;0.75;;;12.00;96.80;;;;;;5030378;28;20049;-65
2022/04/05 12:03:55;;;;;;;3.40;1.20;;;12.00;96.70;;;;;;5029897;28;20030;-65
2022/04/05 12:06:32;;;;;;;5.15;1.20;;;12.00;96.70;;;;;;5030164;28;20041;-65
2022/04/05 12:09:04;;;;;;;6.53;1.50;;;12.10;96.80;;;;;;5030285;28;20034;-65
2022/04/05 12:11:32;;;;;;;4.22;1.33;;;12.10;96.80;;;;;;5029692;28;20122;-65
2022/04/05 12:14:05;;;;;;;2.70;1.15;;;12.10;96.70;;;;;;5030302;28;20041;-65
2022/04/05 12:16:49;;;;;;;1.83;0.88;;;12.10;96.60;;;;;;5030040;28;20041;-67
2022/04/05 12:19:35;;;;;;;3.22;1.40;;;12.20;96.60;;;;;;5027328;28;20160;-67
2022/04/05 12:22:05;;;;;;;5.18;1.27;;;12.30;96.60;;;;;;5011404;28;20041;-67
2022/04/05 12:24:32;;;;;;;1.90;1.48;;;12.30;96.60;;;;;;5015161;28;20033;-67
2022/04/05 12:27:00;;;;;;;3.92;1.30;;;12.30;96.60;;;;;;5015660;28;20464;-67
2022/04/05 12:29:28;;;;;;;10.45;1.40;;;12.40;96.60;;;;;;5010729;28;20034;-67
2022/04/05 12:31:54;;;;;;;4.20;1.33;;;12.40;96.60;;;;;;5023374;28;20038;-67
2022/04/05 12:34:20;;;;;;;2.47;1.20;;;12.40;96.70;;;;;;5011456;28;20131;-67
2022/04/05 12:36:48;;;;;;;4.07;1.60;;;12.30;96.70;;;;;;5010953;28;20030;-67
2022/04/05 12:39:20;;;;;;;6.00;1.63;;;12.40;96.60;;;;;;5020221;28;20071;-67
2022/04/05 12:41:53;;;;;;;1.10;1.00;;;12.40;96.60;;;;;;5015459;28;20040;-67
2022/04/05 12:44:20;;;;;;;2.77;1.30;;;12.40;96.70;;;;;;5028899;28;20041;-67
2022/04/05 12:46:52;;;;;;;1.17;0.90;;;12.40;96.70;;;;;;5030765;28;20443;-67
2022/04/05 12:49:34;;;;;;;4.50;1.20;;;12.50;96.70;;;;;;5032826;28;20152;-67
2022/04/05 12:52:17;;;;;;;2.65;1.08;;;12.50;96.70;;;;;;5031491;28;20080;-67
2022/04/05 12:54:48;;;;;;;1.60;1.25;;;12.50;96.80;;;;;;5031457;28;20381;-67